Time;durP1;ratioP1;P1;durP2;ratioP2;P2;SDS_P1;SDS_P2;PMS_P1;PMS_P2;Temp;Humidity;BMP_temperature;BMP_pressure;BME280_temperature;BME280_humidity;BME280_pressure;Samples;Min_cycle;Max_cycle;Signal;HPM_P1;HPM_P2
2022/11/09 00:02:08;;;;;;;36.20;10.95;;;;;;;;;;4998729;28;20088;-26
2022/11/09 00:04:34;;;;;;;30.45;10.77;;;;;;;;;;4998613;28;20038;-27
2022/11/09 00:07:00;;;;;;;32.83;11.32;;;;;;;;;;4999012;28;20022;-27
2022/11/09 00:09:27;;;;;;;29.85;11.48;;;;;;;;;;4998980;28;20033;-27
2022/11/09 00:11:54;;;;;;;37.10;12.05;;;;;;;;;;4998586;28;20030;-27
2022/11/09 00:14:20;;;;;;;25.92;8.65;;;;;;;;;;4999166;28;20105;-27
2022/11/09 00:16:46;;;;;;;28.27;10.93;;;;;;;;;;4998749;28;20374;-27
2022/11/09 00:19:12;;;;;;;29.60;11.50;;;;;;;;;;4998528;28;20023;-27
2022/11/09 00:21:39;;;;;;;29.00;11.15;;;;;;;;;;4998983;28;20046;-27
2022/11/09 00:24:05;;;;;;;41.38;12.90;;;;;;;;;;4998393;28;20372;-27
2022/11/09 00:26:32;;;;;;;34.97;10.98;;;;;;;;;;4998909;28;20034;-27
2022/11/09 00:28:58;;;;;;;31.20;11.50;;;;;;;;;;4998618;28;20026;-27
2022/11/09 00:31:25;;;;;;;28.67;9.98;;;;;;;;;;4999365;28;20346;-27
2022/11/09 00:33:53;;;;;;;31.95;10.68;;;;;;;;;;4998450;28;20417;-27
2022/11/09 00:36:20;;;;;;;31.17;8.98;;;;;;;;;;4998695;28;20030;-27
2022/11/09 00:38:50;;;;;;;25.40;8.98;;;;;;;;;;4998190;28;20049;-27
2022/11/09 00:41:17;;;;;;;29.63;10.65;;;;;;;;;;4998680;28;20391;-27
2022/11/09 00:43:43;;;;;;;30.30;10.68;;;;;;;;;;4996952;28;20065;-27
2022/11/09 00:46:09;;;;;;;34.55;11.70;;;;;;;;;;4998287;28;20362;-27
2022/11/09 00:48:35;;;;;;;35.13;11.45;;;;;;;;;;4997972;28;20373;-27
2022/11/09 00:51:02;;;;;;;37.13;11.13;;;;;;;;;;4998215;28;20121;-27
2022/11/09 00:53:29;;;;;;;32.50;10.20;;;;;;;;;;4998626;28;20038;-27
2022/11/09 00:56:00;;;;;;;37.05;11.23;;;;;;;;;;4998077;28;20101;-27
2022/11/09 00:58:27;;;;;;;27.95;11.82;;;;;;;;;;4998118;28;20034;-27
2022/11/09 01:00:53;;;;;;;24.17;9.07;;;;;;;;;;4997772;28;20026;-27
2022/11/09 01:03:20;;;;;;;21.65;9.70;;;;;;;;;;4997925;28;20077;-26
2022/11/09 01:05:46;;;;;;;22.58;9.75;;;;;;;;;;4997698;28;20097;-27
2022/11/09 01:08:12;;;;;;;27.80;10.45;;;;;;;;;;4997628;28;20026;-27
2022/11/09 01:10:42;;;;;;;33.83;10.50;;;;;;;;;;4997878;28;20030;-27
2022/11/09 01:13:09;;;;;;;25.30;8.85;;;;;;;;;;4997514;28;20112;-27
2022/11/09 01:15:40;;;;;;;29.08;9.95;;;;;;;;;;4997703;28;20503;-27
2022/11/09 01:18:06;;;;;;;35.85;11.43;;;;;;;;;;4997495;28;20058;-27
2022/11/09 01:20:32;;;;;;;36.15;12.60;;;;;;;;;;4997698;28;20042;-27
2022/11/09 01:22:59;;;;;;;27.58;9.70;;;;;;;;;;4997595;28;20029;-27
2022/11/09 01:25:25;;;;;;;25.92;10.05;;;;;;;;;;4980231;28;20034;-27
2022/11/09 01:27:51;;;;;;;35.28;9.77;;;;;;;;;;4997318;28;20478;-27
2022/11/09 01:30:17;;;;;;;34.58;10.43;;;;;;;;;;4997496;28;20346;-27
2022/11/09 01:32:44;;;;;;;25.65;9.90;;;;;;;;;;4997335;28;20022;-27
2022/11/09 01:35:10;;;;;;;35.63;9.43;;;;;;;;;;4997099;28;20034;-27
2022/11/09 01:37:36;;;;;;;27.15;11.07;;;;;;;;;;4997361;28;20338;-27
2022/11/09 01:40:02;;;;;;;30.90;9.80;;;;;;;;;;4996998;28;20473;-27
2022/11/09 01:42:29;;;;;;;20.90;10.00;;;;;;;;;;4979766;28;20109;-27
2022/11/09 01:45:13;;;;;;;21.83;10.15;;;;;;;;;;4996894;28;20038;-27
2022/11/09 01:47:40;;;;;;;26.67;9.57;;;;;;;;;;4997204;28;20040;-27
2022/11/09 01:50:06;;;;;;;24.52;10.55;;;;;;;;;;4997134;28;20034;-27
2022/11/09 01:52:35;;;;;;;27.42;11.15;;;;;;;;;;4979840;28;20035;-27
2022/11/09 01:55:13;;;;;;;21.52;9.23;;;;;;;;;;4996525;28;20085;-27
2022/11/09 01:57:41;;;;;;;28.40;8.88;;;;;;;;;;4996672;28;20037;-27
2022/11/09 02:00:09;;;;;;;26.27;8.73;;;;;;;;;;4996661;28;20030;-27
2022/11/09 02:02:37;;;;;;;31.40;9.80;;;;;;;;;;4996524;28;20442;-27
2022/11/09 02:05:06;;;;;;;25.92;10.25;;;;;;;;;;4996396;28;20049;-27
2022/11/09 02:07:33;;;;;;;16.95;9.45;;;;;;;;;;4996474;28;20469;-27
2022/11/09 02:10:25;;;;;;;22.88;9.18;;;;;;;;;;4996718;28;20037;-27
2022/11/09 02:12:53;;;;;;;23.20;9.27;;;;;;;;;;4993155;28;20038;-27
2022/11/09 02:15:20;;;;;;;28.42;8.70;;;;;;;;;;4996534;28;20042;-27
2022/11/09 02:17:48;;;;;;;31.60;9.23;;;;;;;;;;4996597;28;20026;-26
2022/11/09 02:20:15;;;;;;;24.58;9.93;;;;;;;;;;4996818;28;20026;-26
2022/11/09 02:22:41;;;;;;;26.58;8.60;;;;;;;;;;4996721;28;20037;-26
2022/11/09 02:25:09;;;;;;;25.20;12.68;;;;;;;;;;4996231;28;20029;-26
2022/11/09 02:27:35;;;;;;;23.27;11.90;;;;;;;;;;4996481;28;20105;-26
2022/11/09 02:30:02;;;;;;;29.77;10.07;;;;;;;;;;4996111;28;20034;-26
2022/11/09 02:32:29;;;;;;;28.27;9.48;;;;;;;;;;4996219;28;20033;-26
2022/11/09 02:34:55;;;;;;;26.50;9.85;;;;;;;;;;4995930;28;20041;-26
2022/11/09 02:37:34;;;;;;;18.85;8.35;;;;;;;;;;4995977;28;20038;-26
2022/11/09 02:40:00;;;;;;;21.33;9.00;;;;;;;;;;4995910;28;20029;-26
2022/11/09 02:42:27;;;;;;;31.10;10.52;;;;;;;;;;4996061;28;20389;-26
2022/11/09 02:44:58;;;;;;;24.10;9.35;;;;;;;;;;4995868;28;20373;-27
2022/11/09 02:47:24;;;;;;;22.60;8.20;;;;;;;;;;4995844;28;20014;-26
2022/11/09 02:49:50;;;;;;;19.00;9.05;;;;;;;;;;4996065;28;20053;-26
2022/11/09 02:52:17;;;;;;;28.90;9.10;;;;;;;;;;4995724;28;20105;-26
2022/11/09 02:54:43;;;;;;;23.92;11.68;;;;;;;;;;4995631;28;20034;-27
2022/11/09 02:57:09;;;;;;;26.10;10.68;;;;;;;;;;4995642;28;20034;-26
2022/11/09 02:59:35;;;;;;;25.10;9.32;;;;;;;;;;4995619;28;20038;-26
2022/11/09 03:02:01;;;;;;;27.77;8.52;;;;;;;;;;4995493;28;20023;-27
2022/11/09 03:04:27;;;;;;;33.05;10.35;;;;;;;;;;4995357;28;20133;-27
2022/11/09 03:06:54;;;;;;;24.58;8.63;;;;;;;;;;4994989;28;20030;-27
2022/11/09 03:09:20;;;;;;;25.10;9.02;;;;;;;;;;4995446;28;20026;-27
2022/11/09 03:11:46;;;;;;;23.88;10.07;;;;;;;;;;4995666;28;20041;-27
2022/11/09 03:14:12;;;;;;;20.38;8.65;;;;;;;;;;4995989;28;20085;-26
2022/11/09 03:16:39;;;;;;;27.60;8.27;;;;;;;;;;4995263;28;20030;-27
2022/11/09 03:19:05;;;;;;;22.10;9.00;;;;;;;;;;4995657;28;20023;-26
2022/11/09 03:21:31;;;;;;;17.60;8.40;;;;;;;;;;4995297;28;20034;-26
2022/11/09 03:23:57;;;;;;;24.70;9.95;;;;;;;;;;4995262;28;20026;-27
2022/11/09 03:26:24;;;;;;;22.70;8.75;;;;;;;;;;4995562;28;20057;-27
2022/11/09 03:28:50;;;;;;;23.95;8.32;;;;;;;;;;4995300;28;20041;-27
2022/11/09 03:31:16;;;;;;;30.77;8.65;;;;;;;;;;4995255;28;20030;-27
2022/11/09 03:33:42;;;;;;;21.85;8.88;;;;;;;;;;4995170;28;20038;-27
2022/11/09 03:36:09;;;;;;;20.80;8.32;;;;;;;;;;4995176;28;20076;-27
2022/11/09 03:38:35;;;;;;;22.77;9.73;;;;;;;;;;4995228;28;20018;-27
2022/11/09 03:41:01;;;;;;;15.27;8.82;;;;;;;;;;4995210;28;20030;-27
2022/11/09 03:43:30;;;;;;;21.27;9.45;;;;;;;;;;4995142;28;20450;-27
2022/11/09 03:45:56;;;;;;;21.35;8.57;;;;;;;;;;4995106;28;20112;-27
2022/11/09 03:48:23;;;;;;;16.38;7.65;;;;;;;;;;4995143;28;20109;-27
2022/11/09 03:50:49;;;;;;;21.60;9.65;;;;;;;;;;4995325;28;20370;-27
2022/11/09 03:53:15;;;;;;;20.95;8.90;;;;;;;;;;4995032;28;20403;-27
2022/11/09 03:55:41;;;;;;;20.83;7.18;;;;;;;;;;4994984;28;20058;-27
2022/11/09 03:58:09;;;;;;;20.63;8.98;;;;;;;;;;4995293;28;20109;-27
2022/11/09 04:00:35;;;;;;;16.65;8.40;;;;;;;;;;4995002;28;20446;-27
2022/11/09 04:03:01;;;;;;;15.45;7.45;;;;;;;;;;4994914;28;20089;-27
2022/11/09 04:05:27;;;;;;;21.00;7.45;;;;;;;;;;4994931;28;20048;-27
2022/11/09 04:07:55;;;;;;;19.42;7.78;;;;;;;;;;4995188;28;20042;-27
2022/11/09 04:10:23;;;;;;;24.10;8.82;;;;;;;;;;4994899;28;20041;-27
2022/11/09 04:12:49;;;;;;;20.33;7.45;;;;;;;;;;4994758;28;20481;-27
2022/11/09 04:15:15;;;;;;;19.85;8.38;;;;;;;;;;4995061;28;20361;-27
2022/11/09 04:17:43;;;;;;;27.55;8.63;;;;;;;;;;4995051;28;20047;-27
2022/11/09 04:20:10;;;;;;;24.80;8.45;;;;;;;;;;4999077;28;20022;-27
2022/11/09 04:22:36;;;;;;;15.65;7.80;;;;;;;;;;4998702;28;20431;-27
2022/11/09 04:25:02;;;;;;;17.45;8.05;;;;;;;;;;4998720;28;20054;-27
2022/11/09 04:27:28;;;;;;;17.88;7.70;;;;;;;;;;4999137;28;20034;-27
2022/11/09 04:29:55;;;;;;;23.65;8.23;;;;;;;;;;4998917;28;20449;-27
2022/11/09 04:32:21;;;;;;;21.70;8.20;;;;;;;;;;4998534;28;20034;-27
2022/11/09 04:34:47;;;;;;;18.70;7.20;;;;;;;;;;4998231;28;20417;-27
2022/11/09 04:37:13;;;;;;;19.70;8.05;;;;;;;;;;4999030;28;20113;-27
2022/11/09 04:39:39;;;;;;;23.42;8.63;;;;;;;;;;4998461;28;20026;-27
2022/11/09 04:42:05;;;;;;;21.10;8.90;;;;;;;;;;4998376;28;20346;-27
2022/11/09 04:44:31;;;;;;;22.67;8.32;;;;;;;;;;4998380;28;20030;-27
2022/11/09 04:46:58;;;;;;;14.38;7.10;;;;;;;;;;4998609;28;20028;-27
2022/11/09 04:49:24;;;;;;;16.95;8.57;;;;;;;;;;4998266;28;20101;-27
2022/11/09 04:51:50;;;;;;;27.70;9.23;;;;;;;;;;4997868;28;20033;-27
2022/11/09 04:54:16;;;;;;;18.17;7.70;;;;;;;;;;4997930;28;20373;-27
2022/11/09 04:56:42;;;;;;;17.50;7.68;;;;;;;;;;4997761;28;20018;-26
2022/11/09 04:59:08;;;;;;;14.07;7.38;;;;;;;;;;4997736;28;20031;-26
2022/11/09 05:01:34;;;;;;;16.17;8.98;;;;;;;;;;4998309;28;20022;-26
2022/11/09 05:04:00;;;;;;;17.35;8.20;;;;;;;;;;4997594;28;20149;-27
2022/11/09 05:06:33;;;;;;;18.95;7.90;;;;;;;;;;4997956;28;20038;-27
2022/11/09 05:09:05;;;;;;;20.15;8.43;;;;;;;;;;4997899;28;20077;-27
2022/11/09 05:11:32;;;;;;;25.27;7.65;;;;;;;;;;4997532;28;20450;-27
2022/11/09 05:13:58;;;;;;;15.35;7.40;;;;;;;;;;4997704;28;20108;-26
2022/11/09 05:16:25;;;;;;;26.08;8.88;;;;;;;;;;4997341;28;20030;-26
2022/11/09 05:18:55;;;;;;;13.32;7.70;;;;;;;;;;4997374;28;20037;-27
2022/11/09 05:21:23;;;;;;;17.55;7.55;;;;;;;;;;4997681;28;20030;-27
2022/11/09 05:23:59;;;;;;;;;;;;;;;;;;4980354;28;20069;-27
2022/11/09 05:26:29;;;;;;;19.67;10.02;;;;;;;;;;4997863;28;19964;-27
2022/11/09 05:28:57;;;;;;;19.37;8.20;;;;;;;;;;4997276;28;20034;-27
2022/11/09 05:31:24;;;;;;;18.70;7.45;;;;;;;;;;4996912;28;20285;-27
2022/11/09 05:33:51;;;;;;;11.93;7.13;;;;;;;;;;4997347;28;20417;-27
2022/11/09 05:36:17;;;;;;;20.58;9.88;;;;;;;;;;4997311;28;20357;-27
2022/11/09 05:38:44;;;;;;;13.85;7.13;;;;;;;;;;4997598;28;20042;-27
2022/11/09 05:41:10;;;;;;;18.45;9.35;;;;;;;;;;4979890;28;20023;-27
2022/11/09 05:43:36;;;;;;;18.58;7.97;;;;;;;;;;4996885;28;20054;-27
2022/11/09 05:46:02;;;;;;;14.25;7.30;;;;;;;;;;4997204;28;20034;-27
2022/11/09 05:48:28;;;;;;;18.35;7.28;;;;;;;;;;4996850;28;20030;-27
2022/11/09 05:50:55;;;;;;;18.42;8.63;;;;;;;;;;4996758;28;20046;-27
2022/11/09 05:53:21;;;;;;;17.63;8.32;;;;;;;;;;4996910;28;20089;-27
2022/11/09 05:55:47;;;;;;;22.52;7.45;;;;;;;;;;4996688;28;20045;-27
2022/11/09 05:58:13;;;;;;;15.95;8.65;;;;;;;;;;4997206;28;20358;-27
2022/11/09 06:00:40;;;;;;;19.38;7.28;;;;;;;;;;4996958;28;20404;-27
2022/11/09 06:03:10;;;;;;;21.48;8.88;;;;;;;;;;4996485;28;20058;-27
2022/11/09 06:05:37;;;;;;;18.95;8.00;;;;;;;;;;4996876;28;20030;-27
2022/11/09 06:08:04;;;;;;;17.38;9.10;;;;;;;;;;4980594;28;20034;-27
2022/11/09 06:10:32;;;;;;;14.55;7.40;;;;;;;;;;4996411;28;20031;-27
2022/11/09 06:12:59;;;;;;;19.90;7.53;;;;;;;;;;4996258;28;20541;-27
2022/11/09 06:15:25;;;;;;;20.20;8.25;;;;;;;;;;4996834;28;20034;-27
2022/11/09 06:17:52;;;;;;;25.80;9.90;;;;;;;;;;4996336;28;20026;-27
2022/11/09 06:20:19;;;;;;;23.15;8.75;;;;;;;;;;4996515;28;20026;-27
2022/11/09 06:22:45;;;;;;;26.27;11.88;;;;;;;;;;4996601;28;20029;-27
2022/11/09 06:25:11;;;;;;;18.30;7.63;;;;;;;;;;4995879;28;20084;-27
2022/11/09 06:27:37;;;;;;;14.85;8.43;;;;;;;;;;4996927;28;20101;-27
2022/11/09 06:30:04;;;;;;;19.13;9.73;;;;;;;;;;4996609;28;20046;-27
2022/11/09 06:32:30;;;;;;;17.13;6.95;;;;;;;;;;4996255;28;20118;-27
2022/11/09 06:34:56;;;;;;;13.93;7.13;;;;;;;;;;4996188;28;20038;-27
2022/11/09 06:37:22;;;;;;;16.85;7.68;;;;;;;;;;4995910;28;20022;-27
2022/11/09 06:39:50;;;;;;;22.33;9.52;;;;;;;;;;4995901;28;20038;-27
2022/11/09 06:42:16;;;;;;;23.17;9.05;;;;;;;;;;4995164;28;20162;-27
2022/11/09 06:44:42;;;;;;;19.48;9.05;;;;;;;;;;4995755;28;20357;-27
2022/11/09 06:47:08;;;;;;;21.30;7.88;;;;;;;;;;4996091;28;20038;-27
2022/11/09 06:49:35;;;;;;;18.92;7.72;;;;;;;;;;4996034;28;20018;-27
2022/11/09 06:52:01;;;;;;;25.25;10.45;;;;;;;;;;4995609;28;20026;-27
2022/11/09 06:54:27;;;;;;;21.45;8.35;;;;;;;;;;4995630;28;20026;-27
2022/11/09 06:56:54;;;;;;;22.05;8.65;;;;;;;;;;4995383;28;20504;-28
2022/11/09 06:59:20;;;;;;;15.48;7.53;;;;;;;;;;4995560;28;20073;-28
2022/11/09 07:01:46;;;;;;;40.25;10.73;;;;;;;;;;4995627;28;20424;-27
2022/11/09 07:04:14;;;;;;;28.20;8.60;;;;;;;;;;4995222;28;20084;-27
2022/11/09 07:06:40;;;;;;;14.55;6.82;;;;;;;;;;4995668;28;20101;-27
2022/11/09 07:09:07;;;;;;;13.93;6.90;;;;;;;;;;4995375;28;20113;-28
2022/11/09 07:11:33;;;;;;;20.05;7.47;;;;;;;;;;4995475;28;20049;-27
2022/11/09 07:14:01;;;;;;;15.48;9.02;;;;;;;;;;4995281;28;20030;-28
2022/11/09 07:16:28;;;;;;;22.05;8.32;;;;;;;;;;4996079;28;20342;-27
2022/11/09 07:18:54;;;;;;;23.73;8.80;;;;;;;;;;4995273;28;20106;-27
2022/11/09 07:21:20;;;;;;;19.55;7.80;;;;;;;;;;4995585;28;20418;-27
2022/11/09 07:23:47;;;;;;;15.25;8.02;;;;;;;;;;4995171;28;20050;-27
2022/11/09 07:26:13;;;;;;;26.42;7.45;;;;;;;;;;4995272;28;20062;-27
2022/11/09 07:28:39;;;;;;;28.63;9.15;;;;;;;;;;4995513;28;20096;-27
2022/11/09 07:31:05;;;;;;;21.85;8.55;;;;;;;;;;4995228;28;20026;-27
2022/11/09 07:33:32;;;;;;;19.63;7.95;;;;;;;;;;4995095;28;20038;-27
2022/11/09 07:35:59;;;;;;;40.72;10.43;;;;;;;;;;4995334;28;20084;-27
2022/11/09 07:38:25;;;;;;;49.47;10.95;;;;;;;;;;4995046;28;20069;-28
2022/11/09 07:40:51;;;;;;;90.25;23.25;;;;;;;;;;4995355;28;20030;-28
2022/11/09 07:43:19;;;;;;;53.00;15.88;;;;;;;;;;4995171;28;20030;-28
2022/11/09 07:45:45;;;;;;;34.35;9.30;;;;;;;;;;4995261;28;20026;-28
2022/11/09 07:48:12;;;;;;;18.35;8.13;;;;;;;;;;4994988;28;20034;-27
2022/11/09 07:50:39;;;;;;;20.33;8.82;;;;;;;;;;4995551;28;20105;-27
2022/11/09 07:53:06;;;;;;;22.58;7.97;;;;;;;;;;4996062;28;20425;-27
2022/11/09 07:55:32;;;;;;;20.48;8.23;;;;;;;;;;4999090;28;20061;-27
2022/11/09 07:57:59;;;;;;;49.30;13.25;;;;;;;;;;4999083;28;20032;-27
2022/11/09 08:00:26;;;;;;;43.30;11.27;;;;;;;;;;4998715;28;20029;-27
2022/11/09 08:02:53;;;;;;;55.30;15.25;;;;;;;;;;4998710;28;20100;-27
2022/11/09 08:05:19;;;;;;;32.35;10.13;;;;;;;;;;4999231;28;20030;-27
2022/11/09 08:07:45;;;;;;;20.52;10.43;;;;;;;;;;4998808;28;20093;-27
2022/11/09 08:10:12;;;;;;;40.50;13.05;;;;;;;;;;4998579;28;20037;-27
2022/11/09 08:12:38;;;;;;;47.00;15.20;;;;;;;;;;4998288;28;20041;-28
2022/11/09 08:15:05;;;;;;;49.03;14.93;;;;;;;;;;4998433;28;20390;-27
2022/11/09 08:17:32;;;;;;;30.60;10.05;;;;;;;;;;4998338;28;20033;-27
2022/11/09 08:19:58;;;;;;;42.13;12.52;;;;;;;;;;4998674;28;20040;-27
2022/11/09 08:22:24;;;;;;;31.23;12.35;;;;;;;;;;4998384;28;20038;-27
2022/11/09 08:24:50;;;;;;;40.08;12.90;;;;;;;;;;4998673;28;20034;-27
2022/11/09 08:27:16;;;;;;;43.28;12.98;;;;;;;;;;4998635;28;20097;-27
2022/11/09 08:29:42;;;;;;;34.83;12.80;;;;;;;;;;4998796;28;20026;-27
2022/11/09 08:32:08;;;;;;;41.58;14.45;;;;;;;;;;4998261;28;20026;-27
2022/11/09 08:34:34;;;;;;;46.25;14.75;;;;;;;;;;4998377;28;20050;-27
2022/11/09 08:37:01;;;;;;;40.17;12.82;;;;;;;;;;4998124;28;20038;-27
2022/11/09 08:39:27;;;;;;;36.22;15.20;;;;;;;;;;4998334;28;20441;-27
2022/11/09 08:41:54;;;;;;;39.85;12.52;;;;;;;;;;4997953;28;20072;-27
2022/11/09 08:44:21;;;;;;;40.83;13.07;;;;;;;;;;4998027;28;20454;-26
2022/11/09 08:46:47;;;;;;;51.45;16.45;;;;;;;;;;4998747;28;20034;-27
2022/11/09 08:49:14;;;;;;;52.83;15.52;;;;;;;;;;4997968;28;20038;-27
2022/11/09 08:51:40;;;;;;;52.75;15.00;;;;;;;;;;4997705;28;20120;-27
2022/11/09 08:54:07;;;;;;;51.88;15.88;;;;;;;;;;4997756;28;20070;-27
2022/11/09 08:56:34;;;;;;;52.83;17.42;;;;;;;;;;4997982;28;20034;-27
2022/11/09 08:59:00;;;;;;;67.93;20.42;;;;;;;;;;4997693;28;20018;-27
2022/11/09 09:01:26;;;;;;;70.38;20.40;;;;;;;;;;4997901;28;20034;-27
2022/11/09 09:03:52;;;;;;;67.57;20.42;;;;;;;;;;4997365;28;20069;-27
2022/11/09 09:06:18;;;;;;;82.82;23.60;;;;;;;;;;4996687;28;20404;-27
2022/11/09 09:08:45;;;;;;;106.18;26.80;;;;;;;;;;4997600;28;20113;-27
2022/11/09 09:11:11;;;;;;;64.20;17.73;;;;;;;;;;4997499;28;20049;-27
2022/11/09 09:13:37;;;;;;;75.70;24.08;;;;;;;;;;4997722;28;20450;-27
2022/11/09 09:16:13;;;;;;;72.72;19.80;;;;;;;;;;4997839;28;20446;-27
2022/11/09 09:18:39;;;;;;;81.97;19.58;;;;;;;;;;4997558;28;20029;-27
2022/11/09 09:21:07;;;;;;;70.45;18.48;;;;;;;;;;4997857;28;20053;-26
2022/11/09 09:23:33;;;;;;;93.10;23.73;;;;;;;;;;4997449;28;20372;-27
2022/11/09 09:25:59;;;;;;;86.55;24.73;;;;;;;;;;4997147;28;20045;-27
2022/11/09 09:28:25;;;;;;;103.22;25.05;;;;;;;;;;4997483;28;20490;-26
2022/11/09 09:30:52;;;;;;;106.82;27.58;;;;;;;;;;4997129;28;20058;-26
2022/11/09 09:33:18;;;;;;;90.68;24.52;;;;;;;;;;4997214;28;20357;-27
2022/11/09 09:35:44;;;;;;;87.68;28.10;;;;;;;;;;4996762;28;20508;-27
2022/11/09 09:38:10;;;;;;;97.75;28.40;;;;;;;;;;4997276;28;20018;-27
2022/11/09 09:40:40;;;;;;;110.47;25.63;;;;;;;;;;4996983;28;20177;-27
2022/11/09 09:43:11;;;;;;;105.85;28.35;;;;;;;;;;4997167;28;20027;-27
2022/11/09 09:45:42;;;;;;;95.95;28.10;;;;;;;;;;4997480;28;20306;-27
2022/11/09 09:48:08;;;;;;;91.18;25.83;;;;;;;;;;4997151;28;20034;-27
2022/11/09 09:50:52;;;;;;;87.88;25.48;;;;;;;;;;4996662;28;20034;-27
2022/11/09 09:53:32;;;;;;;83.95;23.90;;;;;;;;;;4996693;28;20049;-26
2022/11/09 09:56:13;;;;;;;89.07;24.98;;;;;;;;;;4996729;28;20037;-26
2022/11/09 09:58:45;;;;;;;99.35;24.90;;;;;;;;;;4996711;28;20097;-27
2022/11/09 10:01:19;;;;;;;108.65;26.73;;;;;;;;;;4996595;28;20102;-27
2022/11/09 10:03:45;;;;;;;90.10;26.30;;;;;;;;;;4996204;28;20050;-27
2022/11/09 10:06:30;;;;;;;84.15;20.95;;;;;;;;;;4996551;28;20026;-27
2022/11/09 10:09:22;;;;;;;82.40;26.67;;;;;;;;;;4996484;28;20076;-27
2022/11/09 10:12:01;;;;;;;89.25;23.85;;;;;;;;;;4992887;28;20066;-27
2022/11/09 10:14:39;;;;;;;76.20;23.67;;;;;;;;;;4996416;28;20041;-27
2022/11/09 10:17:05;;;;;;;84.22;25.33;;;;;;;;;;4996491;28;20082;-27
2022/11/09 10:19:47;;;;;;;90.53;24.10;;;;;;;;;;4996559;28;20041;-27
2022/11/09 10:22:13;;;;;;;;;;;;;;;;;;4996602;28;20022;-27
2022/11/09 10:24:45;;;;;;;89.10;26.30;;;;;;;;;;4996457;28;19936;-27
2022/11/09 10:27:24;;;;;;;92.65;25.83;;;;;;;;;;4996916;28;20045;-26
2022/11/09 10:29:50;;;;;;;82.40;22.95;;;;;;;;;;4996048;28;20106;-26
2022/11/09 10:32:21;;;;;;;90.88;25.52;;;;;;;;;;4996224;28;20030;-27
2022/11/09 10:34:53;;;;;;;102.90;26.75;;;;;;;;;;4995958;28;20030;-27
2022/11/09 10:37:32;;;;;;;95.95;24.45;;;;;;;;;;4995873;28;20040;-27
2022/11/09 10:40:03;;;;;;;87.70;27.35;;;;;;;;;;4995920;28;20035;-26
2022/11/09 10:42:29;;;;;;;89.55;24.00;;;;;;;;;;4996090;28;20030;-26
2022/11/09 10:44:55;;;;;;;98.35;24.73;;;;;;;;;;4996021;28;20046;-27
2022/11/09 10:47:21;;;;;;;87.63;22.92;;;;;;;;;;4995783;28;20026;-27
2022/11/09 10:50:05;;;;;;;99.63;26.30;;;;;;;;;;4995961;28;20346;-27
2022/11/09 10:52:38;;;;;;;104.38;23.90;;;;;;;;;;4995853;28;20417;-27
2022/11/09 10:55:23;;;;;;;100.25;26.73;;;;;;;;;;4995546;28;20019;-27
2022/11/09 10:57:58;;;;;;;86.57;24.40;;;;;;;;;;4995636;28;20026;-28
2022/11/09 11:00:25;;;;;;;83.75;24.15;;;;;;;;;;4996311;28;20022;-28
2022/11/09 11:02:52;;;;;;;81.75;24.00;;;;;;;;;;4995457;28;20049;-27
2022/11/09 11:05:18;;;;;;;94.93;24.00;;;;;;;;;;4995780;28;20047;-27
2022/11/09 11:07:45;;;;;;;90.22;28.15;;;;;;;;;;4996209;28;20089;-26
2022/11/09 11:10:17;;;;;;;98.13;25.35;;;;;;;;;;4995314;28;20035;-26
2022/11/09 11:12:44;;;;;;;135.65;35.60;;;;;;;;;;4995239;28;20092;-27
2022/11/09 11:15:30;;;;;;;138.77;35.03;;;;;;;;;;4995214;28;20030;-26
2022/11/09 11:18:04;;;;;;;147.07;42.08;;;;;;;;;;4977221;28;20043;-27
2022/11/09 11:20:30;;;;;;;139.93;34.00;;;;;;;;;;4995573;28;20080;-27
2022/11/09 11:23:25;;;;;;;162.85;38.40;;;;;;;;;;4995330;28;20030;-27
2022/11/09 11:25:54;;;;;;;103.88;26.33;;;;;;;;;;4979445;28;20049;-27
2022/11/09 11:28:33;;;;;;;82.63;26.27;;;;;;;;;;4994664;28;20045;-27
2022/11/09 11:30:59;;;;;;;89.72;24.77;;;;;;;;;;4994981;28;20030;-27
2022/11/09 11:33:25;;;;;;;97.70;23.33;;;;;;;;;;4995218;28;20030;-27
2022/11/09 11:35:54;;;;;;;91.97;26.42;;;;;;;;;;4994867;28;20038;-27
2022/11/09 11:38:26;;;;;;;116.70;28.08;;;;;;;;;;4995258;28;20026;-27
2022/11/09 11:40:52;;;;;;;79.32;23.50;;;;;;;;;;4994983;28;20027;-27
2022/11/09 11:43:36;;;;;;;89.18;24.27;;;;;;;;;;4994812;28;20030;-27
2022/11/09 11:46:21;;;;;;;108.85;30.48;;;;;;;;;;4995277;28;20023;-27
2022/11/09 11:49:00;;;;;;;84.18;27.73;;;;;;;;;;4995674;28;20050;-27
2022/11/09 11:51:49;;;;;;;130.73;32.30;;;;;;;;;;4995108;28;20030;-27
2022/11/09 11:54:23;;;;;;;152.35;36.75;;;;;;;;;;4995033;28;20445;-27
2022/11/09 11:57:02;;;;;;;159.65;34.05;;;;;;;;;;4978444;28;20069;-27
2022/11/09 11:59:53;;;;;;;147.52;32.25;;;;;;;;;;4995218;28;20410;-27
2022/11/09 12:02:38;;;;;;;90.80;22.00;;;;;;;;;;4995109;28;20023;-27
2022/11/09 12:05:27;;;;;;;87.72;23.42;;;;;;;;;;4994652;28;20359;-27
2022/11/09 12:07:57;;;;;;;95.43;24.88;;;;;;;;;;4984834;28;20034;-27
2022/11/09 12:10:23;;;;;;;116.90;24.30;;;;;;;;;;4995127;28;20069;-27
2022/11/09 12:13:04;;;;;;;99.78;20.33;;;;;;;;;;4994664;28;20038;-27
2022/11/09 12:15:34;;;;;;;74.25;18.40;;;;;;;;;;4994956;28;20331;-27
2022/11/09 12:18:03;;;;;;;93.47;28.30;;;;;;;;;;4994635;28;20030;-27
2022/11/09 12:20:33;;;;;;;99.10;30.02;;;;;;;;;;4994643;28;20092;-27
2022/11/09 12:23:18;;;;;;;95.30;22.98;;;;;;;;;;4994897;28;20033;-27
2022/11/09 12:26:02;;;;;;;61.17;18.05;;;;;;;;;;4994675;28;20030;-27
2022/11/09 12:28:33;;;;;;;63.95;17.70;;;;;;;;;;4994826;28;20374;-27
2022/11/09 12:31:08;;;;;;;73.43;19.30;;;;;;;;;;4994884;28;20050;-27
2022/11/09 12:33:34;;;;;;;99.13;25.48;;;;;;;;;;4994641;28;20411;-27
2022/11/09 12:36:14;;;;;;;98.90;28.15;;;;;;;;;;4994450;28;20454;-27
2022/11/09 12:38:49;;;;;;;108.28;31.35;;;;;;;;;;4994821;28;20045;-27
2022/11/09 12:41:16;;;;;;;99.82;25.23;;;;;;;;;;4997323;28;20022;-27
2022/11/09 12:43:45;;;;;;;96.68;27.80;;;;;;;;;;4997958;28;20057;-27
2022/11/09 12:46:13;;;;;;;105.88;29.95;;;;;;;;;;4997839;28;20042;-27
2022/11/09 12:48:40;;;;;;;94.25;28.20;;;;;;;;;;4998925;28;20105;-27
2022/11/09 12:51:07;;;;;;;113.22;28.35;;;;;;;;;;4997903;28;20401;-28
2022/11/09 12:53:35;;;;;;;91.72;25.40;;;;;;;;;;4997951;28;20519;-27
2022/11/09 12:56:07;;;;;;;94.57;25.67;;;;;;;;;;4997878;28;20335;-26
2022/11/09 12:58:35;;;;;;;88.75;23.95;;;;;;;;;;4998027;28;20053;-27
2022/11/09 13:01:02;;;;;;;100.03;25.45;;;;;;;;;;4998472;28;20457;-27
2022/11/09 13:03:29;;;;;;;104.65;31.52;;;;;;;;;;4997423;28;20053;-26
2022/11/09 13:06:10;;;;;;;129.35;32.80;;;;;;;;;;4997832;28;20034;-26
2022/11/09 13:08:37;;;;;;;115.32;32.70;;;;;;;;;;4997631;28;20034;-27
2022/11/09 13:11:20;;;;;;;97.20;24.77;;;;;;;;;;4997487;28;20111;-27
2022/11/09 13:13:46;;;;;;;93.85;26.60;;;;;;;;;;4997366;28;20097;-27
2022/11/09 13:16:31;;;;;;;120.68;26.73;;;;;;;;;;4997605;28;20362;-27
2022/11/09 13:18:57;;;;;;;110.75;28.70;;;;;;;;;;4997277;28;20030;-27
2022/11/09 13:21:23;;;;;;;92.22;25.38;;;;;;;;;;4997221;28;20113;-27
2022/11/09 13:23:50;;;;;;;84.18;25.70;;;;;;;;;;4997136;28;20386;-26
2022/11/09 13:26:32;;;;;;;100.05;27.30;;;;;;;;;;4997131;28;20073;-27
2022/11/09 13:29:09;;;;;;;87.05;23.08;;;;;;;;;;4997422;28;20053;-27
2022/11/09 13:31:54;;;;;;;93.15;24.17;;;;;;;;;;4997338;28;20045;-27
2022/11/09 13:34:39;;;;;;;98.78;23.08;;;;;;;;;;4997102;28;20037;-27
2022/11/09 13:37:23;;;;;;;91.50;27.25;;;;;;;;;;4997156;28;20053;-27
2022/11/09 13:39:49;;;;;;;99.82;29.95;;;;;;;;;;4996839;28;20030;-27
2022/11/09 13:42:29;;;;;;;84.38;28.42;;;;;;;;;;4996840;28;20030;-27
2022/11/09 13:45:15;;;;;;;101.45;28.45;;;;;;;;;;4997265;28;20033;-27
2022/11/09 13:47:49;;;;;;;95.07;25.20;;;;;;;;;;4997230;28;20084;-27
2022/11/09 13:50:19;;;;;;;89.05;23.30;;;;;;;;;;4996651;28;20450;-27
2022/11/09 13:52:48;;;;;;;94.75;23.23;;;;;;;;;;4996344;28;20026;-27
2022/11/09 13:55:36;;;;;;;96.03;21.08;;;;;;;;;;4997165;28;20092;-26
2022/11/09 13:58:20;;;;;;;84.32;24.27;;;;;;;;;;4996813;28;20030;-27
2022/11/09 14:00:47;;;;;;;91.53;25.40;;;;;;;;;;4996588;28;20343;-27
2022/11/09 14:03:23;;;;;;;94.60;27.10;;;;;;;;;;4996239;28;20050;-27
2022/11/09 14:06:01;;;;;;;93.35;26.42;;;;;;;;;;4997019;28;20101;-28
2022/11/09 14:08:35;;;;;;;88.47;26.10;;;;;;;;;;4996321;28;20058;-27
2022/11/09 14:11:01;;;;;;;98.10;25.50;;;;;;;;;;4996406;28;20027;-28
2022/11/09 14:13:30;;;;;;;111.00;29.25;;;;;;;;;;4996571;28;20022;-28
2022/11/09 14:16:05;;;;;;;102.25;27.25;;;;;;;;;;4996515;28;20022;-27
2022/11/09 14:18:50;;;;;;;91.75;27.73;;;;;;;;;;4979196;28;20026;-27
2022/11/09 14:21:34;;;;;;;90.53;25.80;;;;;;;;;;4996131;28;20096;-27
2022/11/09 14:24:02;;;;;;;80.75;23.52;;;;;;;;;;4996821;28;20029;-27
2022/11/09 14:26:28;;;;;;;77.43;22.15;;;;;;;;;;4996359;28;20102;-27
2022/11/09 14:28:55;;;;;;;81.75;23.77;;;;;;;;;;4996137;28;20069;-27
2022/11/09 14:31:26;;;;;;;67.50;21.90;;;;;;;;;;4995998;28;20088;-27
2022/11/09 14:34:03;;;;;;;76.47;23.23;;;;;;;;;;4996153;28;20027;-27